sensor_id;sensor_type;location;lat;lon;timestamp;temperature;humidity
60868;DHT22;46702;48.370;10.794;2023-04-25T00:00:33;6.10;99.90
60868;DHT22;46702;48.370;10.794;2023-04-25T00:03:16;5.90;99.90
60868;DHT22;46702;48.370;10.794;2023-04-25T00:05:43;6.00;99.90
60868;DHT22;46702;48.370;10.794;2023-04-25T00:08:09;6.00;99.90
60868;DHT22;46702;48.370;10.794;2023-04-25T00:10:35;6.10;99.90
60868;DHT22;46702;48.370;10.794;2023-04-25T00:13:00;6.10;99.90
60868;DHT22;46702;48.370;10.794;2023-04-25T00:15:28;6.10;99.90
60868;DHT22;46702;48.370;10.794;2023-04-25T00:17:56;6.10;99.90
60868;DHT22;46702;48.370;10.794;2023-04-25T00:20:22;6.10;99.90
60868;DHT22;46702;48.370;10.794;2023-04-25T00:22:49;6.00;99.90
60868;DHT22;46702;48.370;10.794;2023-04-25T00:25:14;5.90;99.90
60868;DHT22;46702;48.370;10.794;2023-04-25T00:27:40;5.90;99.90
60868;DHT22;46702;48.370;10.794;2023-04-25T00:30:07;5.70;99.90
60868;DHT22;46702;48.370;10.794;2023-04-25T00:32:33;5.80;99.90
60868;DHT22;46702;48.370;10.794;2023-04-25T00:35:05;5.80;99.90
60868;DHT22;46702;48.370;10.794;2023-04-25T00:37:31;5.80;99.90
60868;DHT22;46702;48.370;10.794;2023-04-25T00:39:58;5.90;99.90
60868;DHT22;46702;48.370;10.794;2023-04-25T00:42:25;5.80;99.90
60868;DHT22;46702;48.370;10.794;2023-04-25T00:44:52;5.80;99.90
60868;DHT22;46702;48.370;10.794;2023-04-25T00:47:18;5.80;99.90
60868;DHT22;46702;48.370;10.794;2023-04-25T00:49:44;5.90;99.90
60868;DHT22;46702;48.370;10.794;2023-04-25T00:52:10;5.90;99.90
60868;DHT22;46702;48.370;10.794;2023-04-25T00:54:36;5.90;99.90
60868;DHT22;46702;48.370;10.794;2023-04-25T00:57:02;5.80;99.90
60868;DHT22;46702;48.370;10.794;2023-04-25T00:59:28;5.80;99.90
60868;DHT22;46702;48.370;10.794;2023-04-25T01:01:56;5.80;99.90
60868;DHT22;46702;48.370;10.794;2023-04-25T01:04:29;5.70;99.90
60868;DHT22;46702;48.370;10.794;2023-04-25T01:06:58;5.70;99.90
60868;DHT22;46702;48.370;10.794;2023-04-25T01:09:25;5.70;99.90
60868;DHT22;46702;48.370;10.794;2023-04-25T01:11:51;5.70;99.90
60868;DHT22;46702;48.370;10.794;2023-04-25T01:14:16;5.60;99.90
60868;DHT22;46702;48.370;10.794;2023-04-25T01:16:42;5.60;99.90
60868;DHT22;46702;48.370;10.794;2023-04-25T01:19:10;5.60;99.90
60868;DHT22;46702;48.370;10.794;2023-04-25T01:21:39;5.50;99.90
60868;DHT22;46702;48.370;10.794;2023-04-25T01:24:05;5.60;99.90
60868;DHT22;46702;48.370;10.794;2023-04-25T01:26:32;5.60;99.90
60868;DHT22;46702;48.370;10.794;2023-04-25T01:28:59;5.60;99.90
60868;DHT22;46702;48.370;10.794;2023-04-25T01:31:25;5.60;99.90
60868;DHT22;46702;48.370;10.794;2023-04-25T01:33:52;5.60;99.90
60868;DHT22;46702;48.370;10.794;2023-04-25T01:36:18;5.50;99.90
60868;DHT22;46702;48.370;10.794;2023-04-25T01:38:43;5.40;99.90
60868;DHT22;46702;48.370;10.794;2023-04-25T01:41:09;5.40;99.90
60868;DHT22;46702;48.370;10.794;2023-04-25T01:43:35;5.40;99.90
60868;DHT22;46702;48.370;10.794;2023-04-25T01:46:01;5.50;99.90
60868;DHT22;46702;48.370;10.794;2023-04-25T01:48:26;5.50;99.90
60868;DHT22;46702;48.370;10.794;2023-04-25T01:50:52;5.50;99.90
60868;DHT22;46702;48.370;10.794;2023-04-25T01:53:18;5.30;99.90
60868;DHT22;46702;48.370;10.794;2023-04-25T01:55:43;5.30;99.90
60868;DHT22;46702;48.370;10.794;2023-04-25T01:58:09;5.30;99.90
60868;DHT22;46702;48.370;10.794;2023-04-25T02:00:37;5.30;99.90
60868;DHT22;46702;48.370;10.794;2023-04-25T02:03:04;5.30;99.90
60868;DHT22;46702;48.370;10.794;2023-04-25T02:05:39;5.20;99.90
60868;DHT22;46702;48.370;10.794;2023-04-25T02:08:07;5.20;99.90
60868;DHT22;46702;48.370;10.794;2023-04-25T02:10:33;5.30;99.90
60868;DHT22;46702;48.370;10.794;2023-04-25T02:12:59;5.30;99.90
60868;DHT22;46702;48.370;10.794;2023-04-25T02:15:25;5.30;99.90
60868;DHT22;46702;48.370;10.794;2023-04-25T02:17:51;5.30;99.90
60868;DHT22;46702;48.370;10.794;2023-04-25T02:20:23;5.30;99.90
60868;DHT22;46702;48.370;10.794;2023-04-25T02:22:50;5.30;99.90
60868;DHT22;46702;48.370;10.794;2023-04-25T02:25:17;5.30;99.90
60868;DHT22;46702;48.370;10.794;2023-04-25T02:27:43;5.40;99.90
60868;DHT22;46702;48.370;10.794;2023-04-25T02:30:09;5.40;99.90
60868;DHT22;46702;48.370;10.794;2023-04-25T02:32:34;5.50;99.90
60868;DHT22;46702;48.370;10.794;2023-04-25T02:35:01;5.60;99.90
60868;DHT22;46702;48.370;10.794;2023-04-25T02:37:30;5.60;99.90
60868;DHT22;46702;48.370;10.794;2023-04-25T02:39:56;5.70;99.90
60868;DHT22;46702;48.370;10.794;2023-04-25T02:42:22;5.70;99.90
60868;DHT22;46702;48.370;10.794;2023-04-25T02:44:47;5.80;99.90
60868;DHT22;46702;48.370;10.794;2023-04-25T02:47:13;5.80;99.90
60868;DHT22;46702;48.370;10.794;2023-04-25T02:49:39;5.90;99.90
60868;DHT22;46702;48.370;10.794;2023-04-25T02:52:05;5.90;99.90
60868;DHT22;46702;48.370;10.794;2023-04-25T02:54:30;5.90;99.90
60868;DHT22;46702;48.370;10.794;2023-04-25T02:56:56;6.00;99.90
60868;DHT22;46702;48.370;10.794;2023-04-25T02:59:22;6.10;99.90
60868;DHT22;46702;48.370;10.794;2023-04-25T03:01:47;6.10;99.90
60868;DHT22;46702;48.370;10.794;2023-04-25T03:04:13;6.10;99.90
60868;DHT22;46702;48.370;10.794;2023-04-25T03:06:38;6.10;99.90
60868;DHT22;46702;48.370;10.794;2023-04-25T03:09:04;6.10;99.90
60868;DHT22;46702;48.370;10.794;2023-04-25T03:11:30;6.20;99.90
60868;DHT22;46702;48.370;10.794;2023-04-25T03:13:56;6.20;99.90
60868;DHT22;46702;48.370;10.794;2023-04-25T03:16:22;6.20;99.90
60868;DHT22;46702;48.370;10.794;2023-04-25T03:18:47;6.20;99.90
60868;DHT22;46702;48.370;10.794;2023-04-25T03:21:15;6.20;99.90
60868;DHT22;46702;48.370;10.794;2023-04-25T03:23:40;6.20;99.90
60868;DHT22;46702;48.370;10.794;2023-04-25T03:26:06;6.20;99.90
60868;DHT22;46702;48.370;10.794;2023-04-25T03:28:31;6.20;99.90
60868;DHT22;46702;48.370;10.794;2023-04-25T03:30:57;6.20;99.90
60868;DHT22;46702;48.370;10.794;2023-04-25T03:33:23;6.20;99.90
60868;DHT22;46702;48.370;10.794;2023-04-25T03:35:49;6.30;99.90
60868;DHT22;46702;48.370;10.794;2023-04-25T03:38:15;6.30;99.90
60868;DHT22;46702;48.370;10.794;2023-04-25T03:40:41;6.30;99.90
60868;DHT22;46702;48.370;10.794;2023-04-25T03:43:07;6.30;99.90
60868;DHT22;46702;48.370;10.794;2023-04-25T03:45:32;6.30;99.90
60868;DHT22;46702;48.370;10.794;2023-04-25T03:47:58;6.40;99.90
60868;DHT22;46702;48.370;10.794;2023-04-25T03:50:24;6.40;99.90
60868;DHT22;46702;48.370;10.794;2023-04-25T03:52:49;6.40;99.90
60868;DHT22;46702;48.370;10.794;2023-04-25T03:55:15;6.40;99.90
60868;DHT22;46702;48.370;10.794;2023-04-25T03:57:41;6.30;99.90
60868;DHT22;46702;48.370;10.794;2023-04-25T04:00:07;6.30;99.90
60868;DHT22;46702;48.370;10.794;2023-04-25T04:02:33;6.30;99.90
60868;DHT22;46702;48.370;10.794;2023-04-25T04:05:00;6.30;99.90
60868;DHT22;46702;48.370;10.794;2023-04-25T04:07:28;6.30;99.90
60868;DHT22;46702;48.370;10.794;2023-04-25T04:09:54;6.30;99.90
60868;DHT22;46702;48.370;10.794;2023-04-25T04:12:20;6.30;99.90
60868;DHT22;46702;48.370;10.794;2023-04-25T04:14:45;6.40;99.90
60868;DHT22;46702;48.370;10.794;2023-04-25T04:17:11;6.40;99.90
60868;DHT22;46702;48.370;10.794;2023-04-25T04:19:37;6.40;99.90
60868;DHT22;46702;48.370;10.794;2023-04-25T04:22:02;6.40;99.90
60868;DHT22;46702;48.370;10.794;2023-04-25T04:24:28;6.50;99.90
60868;DHT22;46702;48.370;10.794;2023-04-25T04:26:56;6.50;99.90
60868;DHT22;46702;48.370;10.794;2023-04-25T04:29:22;6.50;99.90
60868;DHT22;46702;48.370;10.794;2023-04-25T04:31:51;6.50;99.90
60868;DHT22;46702;48.370;10.794;2023-04-25T04:34:18;6.50;99.90
60868;DHT22;46702;48.370;10.794;2023-04-25T04:36:44;6.50;99.90
60868;DHT22;46702;48.370;10.794;2023-04-25T04:39:12;6.50;99.90
60868;DHT22;46702;48.370;10.794;2023-04-25T04:41:38;6.50;99.90
60868;DHT22;46702;48.370;10.794;2023-04-25T04:44:04;6.50;99.90
60868;DHT22;46702;48.370;10.794;2023-04-25T04:46:29;6.50;99.90
60868;DHT22;46702;48.370;10.794;2023-04-25T04:49:04;6.50;99.90
60868;DHT22;46702;48.370;10.794;2023-04-25T04:51:30;6.50;99.90
60868;DHT22;46702;48.370;10.794;2023-04-25T04:53:56;6.60;99.90
60868;DHT22;46702;48.370;10.794;2023-04-25T04:56:26;6.60;99.90
60868;DHT22;46702;48.370;10.794;2023-04-25T04:58:55;6.60;99.90
60868;DHT22;46702;48.370;10.794;2023-04-25T05:01:21;6.60;99.90
60868;DHT22;46702;48.370;10.794;2023-04-25T05:03:47;6.60;99.90
60868;DHT22;46702;48.370;10.794;2023-04-25T05:06:13;6.60;99.90
60868;DHT22;46702;48.370;10.794;2023-04-25T05:08:38;6.60;99.90
60868;DHT22;46702;48.370;10.794;2023-04-25T05:11:04;6.60;99.90
60868;DHT22;46702;48.370;10.794;2023-04-25T05:13:30;6.70;99.90
60868;DHT22;46702;48.370;10.794;2023-04-25T05:15:56;6.70;99.90
60868;DHT22;46702;48.370;10.794;2023-04-25T05:18:22;6.70;99.90
60868;DHT22;46702;48.370;10.794;2023-04-25T05:20:52;6.80;99.90
60868;DHT22;46702;48.370;10.794;2023-04-25T05:23:18;6.70;99.90
60868;DHT22;46702;48.370;10.794;2023-04-25T05:25:44;6.80;99.90
60868;DHT22;46702;48.370;10.794;2023-04-25T05:28:12;6.80;99.90
60868;DHT22;46702;48.370;10.794;2023-04-25T05:30:37;6.80;99.90
60868;DHT22;46702;48.370;10.794;2023-04-25T05:33:04;6.80;99.90
60868;DHT22;46702;48.370;10.794;2023-04-25T05:35:29;6.90;99.90
60868;DHT22;46702;48.370;10.794;2023-04-25T05:37:58;6.90;99.90
60868;DHT22;46702;48.370;10.794;2023-04-25T05:40:24;6.90;99.90
60868;DHT22;46702;48.370;10.794;2023-04-25T05:42:50;6.90;99.90
60868;DHT22;46702;48.370;10.794;2023-04-25T05:45:16;7.00;99.90
60868;DHT22;46702;48.370;10.794;2023-04-25T05:47:43;7.00;99.90
60868;DHT22;46702;48.370;10.794;2023-04-25T05:50:08;7.00;99.90
60868;DHT22;46702;48.370;10.794;2023-04-25T05:52:34;7.00;99.90
60868;DHT22;46702;48.370;10.794;2023-04-25T05:55:00;7.10;99.90
60868;DHT22;46702;48.370;10.794;2023-04-25T05:57:26;7.10;99.90
60868;DHT22;46702;48.370;10.794;2023-04-25T05:59:53;7.10;99.90
60868;DHT22;46702;48.370;10.794;2023-04-25T06:02:19;7.10;99.90
60868;DHT22;46702;48.370;10.794;2023-04-25T06:04:46;7.10;99.90
60868;DHT22;46702;48.370;10.794;2023-04-25T06:07:12;7.20;99.90
60868;DHT22;46702;48.370;10.794;2023-04-25T06:09:38;7.20;99.90
60868;DHT22;46702;48.370;10.794;2023-04-25T06:12:06;7.30;99.90
60868;DHT22;46702;48.370;10.794;2023-04-25T06:14:32;7.40;99.90
60868;DHT22;46702;48.370;10.794;2023-04-25T06:16:58;7.50;99.90
60868;DHT22;46702;48.370;10.794;2023-04-25T06:19:24;7.70;99.90
60868;DHT22;46702;48.370;10.794;2023-04-25T06:21:50;7.90;99.90
60868;DHT22;46702;48.370;10.794;2023-04-25T06:24:15;8.10;99.90
60868;DHT22;46702;48.370;10.794;2023-04-25T06:26:41;8.10;99.90
60868;DHT22;46702;48.370;10.794;2023-04-25T06:29:07;8.10;99.90
60868;DHT22;46702;48.370;10.794;2023-04-25T06:31:33;8.00;99.90
60868;DHT22;46702;48.370;10.794;2023-04-25T06:33:59;8.00;99.90
60868;DHT22;46702;48.370;10.794;2023-04-25T06:36:24;8.00;99.90
60868;DHT22;46702;48.370;10.794;2023-04-25T06:38:53;7.90;99.90
60868;DHT22;46702;48.370;10.794;2023-04-25T06:41:19;7.80;99.90
60868;DHT22;46702;48.370;10.794;2023-04-25T06:43:45;7.70;99.90
60868;DHT22;46702;48.370;10.794;2023-04-25T06:46:11;7.70;99.90
60868;DHT22;46702;48.370;10.794;2023-04-25T06:48:37;7.70;99.90
60868;DHT22;46702;48.370;10.794;2023-04-25T06:51:03;7.70;99.90
60868;DHT22;46702;48.370;10.794;2023-04-25T06:53:29;7.70;99.90
60868;DHT22;46702;48.370;10.794;2023-04-25T06:55:55;7.70;99.90
60868;DHT22;46702;48.370;10.794;2023-04-25T06:58:20;7.80;99.90
60868;DHT22;46702;48.370;10.794;2023-04-25T07:00:46;7.80;99.90
60868;DHT22;46702;48.370;10.794;2023-04-25T07:03:12;7.90;99.90
60868;DHT22;46702;48.370;10.794;2023-04-25T07:05:38;7.90;99.90
60868;DHT22;46702;48.370;10.794;2023-04-25T07:08:03;8.00;99.90
60868;DHT22;46702;48.370;10.794;2023-04-25T07:10:29;8.00;99.90
60868;DHT22;46702;48.370;10.794;2023-04-25T07:12:56;8.00;99.90
60868;DHT22;46702;48.370;10.794;2023-04-25T07:15:21;8.10;99.90
60868;DHT22;46702;48.370;10.794;2023-04-25T07:17:47;8.30;99.90
60868;DHT22;46702;48.370;10.794;2023-04-25T07:20:15;8.50;99.90
60868;DHT22;46702;48.370;10.794;2023-04-25T07:22:48;8.60;99.90
60868;DHT22;46702;48.370;10.794;2023-04-25T07:25:17;8.60;99.90
60868;DHT22;46702;48.370;10.794;2023-04-25T07:27:45;8.80;99.90
60868;DHT22;46702;48.370;10.794;2023-04-25T07:30:11;9.10;99.90
60868;DHT22;46702;48.370;10.794;2023-04-25T07:32:38;9.20;99.90
60868;DHT22;46702;48.370;10.794;2023-04-25T07:35:14;9.40;99.90
60868;DHT22;46702;48.370;10.794;2023-04-25T07:37:40;9.50;99.90
60868;DHT22;46702;48.370;10.794;2023-04-25T07:40:06;9.50;99.90
60868;DHT22;46702;48.370;10.794;2023-04-25T07:42:33;9.70;99.90
60868;DHT22;46702;48.370;10.794;2023-04-25T07:44:59;9.70;99.90
60868;DHT22;46702;48.370;10.794;2023-04-25T07:47:25;9.90;99.90
60868;DHT22;46702;48.370;10.794;2023-04-25T07:49:51;9.90;99.90
60868;DHT22;46702;48.370;10.794;2023-04-25T07:52:16;10.20;99.90
60868;DHT22;46702;48.370;10.794;2023-04-25T07:54:42;10.20;99.90
60868;DHT22;46702;48.370;10.794;2023-04-25T07:57:08;10.30;99.90
60868;DHT22;46702;48.370;10.794;2023-04-25T07:59:33;10.20;99.90
60868;DHT22;46702;48.370;10.794;2023-04-25T08:02:00;10.30;99.90
60868;DHT22;46702;48.370;10.794;2023-04-25T08:04:25;10.60;99.90
60868;DHT22;46702;48.370;10.794;2023-04-25T08:06:51;10.70;99.90
60868;DHT22;46702;48.370;10.794;2023-04-25T08:09:19;11.00;99.90
60868;DHT22;46702;48.370;10.794;2023-04-25T08:11:45;10.80;99.90
60868;DHT22;46702;48.370;10.794;2023-04-25T08:14:11;10.70;99.90
60868;DHT22;46702;48.370;10.794;2023-04-25T08:16:37;10.60;99.90
60868;DHT22;46702;48.370;10.794;2023-04-25T08:19:03;10.50;99.90
60868;DHT22;46702;48.370;10.794;2023-04-25T08:21:29;10.40;99.90
60868;DHT22;46702;48.370;10.794;2023-04-25T08:23:54;10.40;99.90
60868;DHT22;46702;48.370;10.794;2023-04-25T08:26:20;10.30;99.90
60868;DHT22;46702;48.370;10.794;2023-04-25T08:28:46;10.60;99.90
60868;DHT22;46702;48.370;10.794;2023-04-25T08:31:12;10.80;99.90
60868;DHT22;46702;48.370;10.794;2023-04-25T08:33:37;10.80;99.90
60868;DHT22;46702;48.370;10.794;2023-04-25T08:36:03;10.80;99.90
60868;DHT22;46702;48.370;10.794;2023-04-25T08:38:29;10.90;99.90
60868;DHT22;46702;48.370;10.794;2023-04-25T08:40:56;10.80;99.90
60868;DHT22;46702;48.370;10.794;2023-04-25T08:43:23;10.90;99.90
60868;DHT22;46702;48.370;10.794;2023-04-25T08:45:49;10.80;99.90
60868;DHT22;46702;48.370;10.794;2023-04-25T08:48:16;10.70;99.90
60868;DHT22;46702;48.370;10.794;2023-04-25T08:50:53;10.60;99.90
60868;DHT22;46702;48.370;10.794;2023-04-25T08:53:26;10.70;99.90
60868;DHT22;46702;48.370;10.794;2023-04-25T08:55:56;10.60;99.90
60868;DHT22;46702;48.370;10.794;2023-04-25T08:58:22;10.50;99.90
60868;DHT22;46702;48.370;10.794;2023-04-25T09:00:49;10.50;99.90
60868;DHT22;46702;48.370;10.794;2023-04-25T09:03:16;10.50;99.90
60868;DHT22;46702;48.370;10.794;2023-04-25T09:05:41;10.40;99.90
60868;DHT22;46702;48.370;10.794;2023-04-25T09:08:07;10.40;99.90
60868;DHT22;46702;48.370;10.794;2023-04-25T09:10:34;10.50;99.90
60868;DHT22;46702;48.370;10.794;2023-04-25T09:13:10;10.50;99.90
60868;DHT22;46702;48.370;10.794;2023-04-25T09:15:50;10.70;99.90
60868;DHT22;46702;48.370;10.794;2023-04-25T09:18:29;10.60;99.90
60868;DHT22;46702;48.370;10.794;2023-04-25T09:21:07;10.50;99.90
60868;DHT22;46702;48.370;10.794;2023-04-25T09:23:43;10.50;99.90
60868;DHT22;46702;48.370;10.794;2023-04-25T09:26:09;10.50;99.90
60868;DHT22;46702;48.370;10.794;2023-04-25T09:28:35;10.50;99.90
60868;DHT22;46702;48.370;10.794;2023-04-25T09:31:01;10.50;99.90
60868;DHT22;46702;48.370;10.794;2023-04-25T09:33:31;10.50;99.90
60868;DHT22;46702;48.370;10.794;2023-04-25T09:36:15;10.50;99.90
60868;DHT22;46702;48.370;10.794;2023-04-25T09:38:43;10.60;99.90
60868;DHT22;46702;48.370;10.794;2023-04-25T09:41:10;10.70;99.90
60868;DHT22;46702;48.370;10.794;2023-04-25T09:43:36;10.70;99.90
60868;DHT22;46702;48.370;10.794;2023-04-25T09:46:02;10.60;99.90
60868;DHT22;46702;48.370;10.794;2023-04-25T09:48:28;10.50;99.90
60868;DHT22;46702;48.370;10.794;2023-04-25T09:53:29;9.90;99.90
60868;DHT22;46702;48.370;10.794;2023-04-25T09:55:55;9.40;99.90
60868;DHT22;46702;48.370;10.794;2023-04-25T09:58:24;9.00;99.90
60868;DHT22;46702;48.370;10.794;2023-04-25T10:00:51;8.90;99.90
60868;DHT22;46702;48.370;10.794;2023-04-25T10:03:17;8.80;99.90
60868;DHT22;46702;48.370;10.794;2023-04-25T10:05:43;8.70;99.90
60868;DHT22;46702;48.370;10.794;2023-04-25T10:08:10;8.80;99.90
60868;DHT22;46702;48.370;10.794;2023-04-25T10:10:37;8.80;99.90
60868;DHT22;46702;48.370;10.794;2023-04-25T10:13:05;9.00;99.90
60868;DHT22;46702;48.370;10.794;2023-04-25T10:15:34;9.20;99.90
60868;DHT22;46702;48.370;10.794;2023-04-25T10:18:01;9.30;99.90
60868;DHT22;46702;48.370;10.794;2023-04-25T10:20:26;9.40;99.90
60868;DHT22;46702;48.370;10.794;2023-04-25T10:22:54;9.50;99.90
60868;DHT22;46702;48.370;10.794;2023-04-25T10:25:22;9.40;99.90
60868;DHT22;46702;48.370;10.794;2023-04-25T10:27:51;9.40;99.90
60868;DHT22;46702;48.370;10.794;2023-04-25T10:30:18;9.50;99.90
60868;DHT22;46702;48.370;10.794;2023-04-25T10:32:44;9.60;99.90
60868;DHT22;46702;48.370;10.794;2023-04-25T10:35:19;9.70;99.90
60868;DHT22;46702;48.370;10.794;2023-04-25T10:38:00;9.80;99.90
60868;DHT22;46702;48.370;10.794;2023-04-25T10:40:28;9.90;99.90
60868;DHT22;46702;48.370;10.794;2023-04-25T10:42:54;10.00;99.90
60868;DHT22;46702;48.370;10.794;2023-04-25T10:45:22;10.10;99.90
60868;DHT22;46702;48.370;10.794;2023-04-25T10:47:48;10.10;99.90
60868;DHT22;46702;48.370;10.794;2023-04-25T10:50:14;10.20;99.90
60868;DHT22;46702;48.370;10.794;2023-04-25T10:52:41;10.20;99.90
60868;DHT22;46702;48.370;10.794;2023-04-25T10:55:07;10.30;99.90
60868;DHT22;46702;48.370;10.794;2023-04-25T10:57:44;10.40;99.90
60868;DHT22;46702;48.370;10.794;2023-04-25T11:00:14;10.40;99.90
60868;DHT22;46702;48.370;10.794;2023-04-25T11:02:45;10.60;99.90
60868;DHT22;46702;48.370;10.794;2023-04-25T11:05:34;10.70;99.90
60868;DHT22;46702;48.370;10.794;2023-04-25T11:08:00;10.30;99.90
60868;DHT22;46702;48.370;10.794;2023-04-25T11:10:28;10.30;99.90
60868;DHT22;46702;48.370;10.794;2023-04-25T11:12:54;10.30;99.90
60868;DHT22;46702;48.370;10.794;2023-04-25T11:15:20;10.50;99.90
60868;DHT22;46702;48.370;10.794;2023-04-25T11:17:46;10.70;99.90
60868;DHT22;46702;48.370;10.794;2023-04-25T11:20:13;10.70;99.90
60868;DHT22;46702;48.370;10.794;2023-04-25T11:22:40;10.50;99.90
60868;DHT22;46702;48.370;10.794;2023-04-25T11:25:10;9.90;99.90
60868;DHT22;46702;48.370;10.794;2023-04-25T11:27:56;9.20;99.90
60868;DHT22;46702;48.370;10.794;2023-04-25T11:30:27;8.50;99.90
60868;DHT22;46702;48.370;10.794;2023-04-25T11:32:54;8.00;99.90
60868;DHT22;46702;48.370;10.794;2023-04-25T11:35:20;8.00;99.90
60868;DHT22;46702;48.370;10.794;2023-04-25T11:37:48;7.90;99.90
60868;DHT22;46702;48.370;10.794;2023-04-25T11:40:15;7.70;99.90
60868;DHT22;46702;48.370;10.794;2023-04-25T11:42:45;7.70;99.90
60868;DHT22;46702;48.370;10.794;2023-04-25T11:45:11;7.80;99.90
60868;DHT22;46702;48.370;10.794;2023-04-25T11:47:38;7.80;99.90
60868;DHT22;46702;48.370;10.794;2023-04-25T11:50:05;7.90;99.90
60868;DHT22;46702;48.370;10.794;2023-04-25T11:52:44;7.80;99.90
60868;DHT22;46702;48.370;10.794;2023-04-25T11:55:13;7.80;99.90
60868;DHT22;46702;48.370;10.794;2023-04-25T11:57:40;7.50;99.90
60868;DHT22;46702;48.370;10.794;2023-04-25T12:00:17;7.40;99.90
60868;DHT22;46702;48.370;10.794;2023-04-25T12:02:50;7.40;99.90
60868;DHT22;46702;48.370;10.794;2023-04-25T12:05:16;7.60;99.90
60868;DHT22;46702;48.370;10.794;2023-04-25T12:07:42;7.60;99.90
60868;DHT22;46702;48.370;10.794;2023-04-25T12:10:08;7.70;99.90
60868;DHT22;46702;48.370;10.794;2023-04-25T12:12:35;7.60;99.90
60868;DHT22;46702;48.370;10.794;2023-04-25T12:15:23;7.60;99.90
60868;DHT22;46702;48.370;10.794;2023-04-25T12:17:50;7.60;99.90
60868;DHT22;46702;48.370;10.794;2023-04-25T12:20:18;7.40;99.90
60868;DHT22;46702;48.370;10.794;2023-04-25T12:22:47;7.30;99.90
60868;DHT22;46702;48.370;10.794;2023-04-25T12:25:17;7.20;99.90
60868;DHT22;46702;48.370;10.794;2023-04-25T12:28:22;7.20;99.90
60868;DHT22;46702;48.370;10.794;2023-04-25T12:31:06;7.20;99.90
60868;DHT22;46702;48.370;10.794;2023-04-25T12:33:36;7.10;99.90
60868;DHT22;46702;48.370;10.794;2023-04-25T12:36:03;7.10;99.90
60868;DHT22;46702;48.370;10.794;2023-04-25T12:38:36;7.30;99.90
60868;DHT22;46702;48.370;10.794;2023-04-25T12:41:02;7.20;99.90
60868;DHT22;46702;48.370;10.794;2023-04-25T12:43:28;7.30;99.90
60868;DHT22;46702;48.370;10.794;2023-04-25T12:45:55;7.40;99.90
60868;DHT22;46702;48.370;10.794;2023-04-25T12:48:21;7.60;99.90
60868;DHT22;46702;48.370;10.794;2023-04-25T12:50:48;7.60;99.90
60868;DHT22;46702;48.370;10.794;2023-04-25T12:53:23;7.50;99.90
60868;DHT22;46702;48.370;10.794;2023-04-25T12:55:50;7.50;99.90
60868;DHT22;46702;48.370;10.794;2023-04-25T12:58:17;7.50;99.90
60868;DHT22;46702;48.370;10.794;2023-04-25T13:00:43;7.60;99.90
60868;DHT22;46702;48.370;10.794;2023-04-25T13:03:09;7.60;99.90
60868;DHT22;46702;48.370;10.794;2023-04-25T13:05:36;7.60;99.90
60868;DHT22;46702;48.370;10.794;2023-04-25T13:08:02;7.70;99.90
60868;DHT22;46702;48.370;10.794;2023-04-25T13:10:28;7.70;99.90
60868;DHT22;46702;48.370;10.794;2023-04-25T13:12:53;7.70;99.90
60868;DHT22;46702;48.370;10.794;2023-04-25T13:15:19;7.70;99.90
60868;DHT22;46702;48.370;10.794;2023-04-25T13:17:45;7.90;99.90
60868;DHT22;46702;48.370;10.794;2023-04-25T13:20:11;8.00;99.90
60868;DHT22;46702;48.370;10.794;2023-04-25T13:22:40;7.80;99.90
60868;DHT22;46702;48.370;10.794;2023-04-25T13:25:07;7.70;99.90
60868;DHT22;46702;48.370;10.794;2023-04-25T13:27:34;7.60;99.90
60868;DHT22;46702;48.370;10.794;2023-04-25T13:30:01;7.80;99.90
60868;DHT22;46702;48.370;10.794;2023-04-25T13:32:36;8.10;99.90
60868;DHT22;46702;48.370;10.794;2023-04-25T13:35:03;8.10;99.90
60868;DHT22;46702;48.370;10.794;2023-04-25T13:37:29;8.20;99.90
60868;DHT22;46702;48.370;10.794;2023-04-25T13:39:59;8.20;99.90
60868;DHT22;46702;48.370;10.794;2023-04-25T13:42:24;8.40;99.90
60868;DHT22;46702;48.370;10.794;2023-04-25T13:44:50;8.40;99.90
60868;DHT22;46702;48.370;10.794;2023-04-25T13:47:16;8.30;99.90
60868;DHT22;46702;48.370;10.794;2023-04-25T13:49:41;8.20;99.90
60868;DHT22;46702;48.370;10.794;2023-04-25T13:52:07;8.00;99.90
60868;DHT22;46702;48.370;10.794;2023-04-25T13:54:33;8.10;99.90
60868;DHT22;46702;48.370;10.794;2023-04-25T13:56:59;7.90;99.90
60868;DHT22;46702;48.370;10.794;2023-04-25T13:59:25;7.90;99.90
60868;DHT22;46702;48.370;10.794;2023-04-25T14:01:51;7.80;99.90
60868;DHT22;46702;48.370;10.794;2023-04-25T14:04:17;7.80;99.90
60868;DHT22;46702;48.370;10.794;2023-04-25T14:06:43;7.70;99.90
60868;DHT22;46702;48.370;10.794;2023-04-25T14:09:08;7.80;99.90
60868;DHT22;46702;48.370;10.794;2023-04-25T14:11:36;7.80;99.90
60868;DHT22;46702;48.370;10.794;2023-04-25T14:14:02;7.70;99.90
60868;DHT22;46702;48.370;10.794;2023-04-25T14:16:28;7.70;99.90
60868;DHT22;46702;48.370;10.794;2023-04-25T14:18:53;7.80;99.90
60868;DHT22;46702;48.370;10.794;2023-04-25T14:21:20;7.80;99.90
60868;DHT22;46702;48.370;10.794;2023-04-25T14:23:46;7.90;99.90
60868;DHT22;46702;48.370;10.794;2023-04-25T14:26:12;8.00;99.90
60868;DHT22;46702;48.370;10.794;2023-04-25T14:28:38;8.00;99.90
60868;DHT22;46702;48.370;10.794;2023-04-25T14:31:04;8.10;99.90
60868;DHT22;46702;48.370;10.794;2023-04-25T14:33:29;8.10;99.90
60868;DHT22;46702;48.370;10.794;2023-04-25T14:35:56;8.20;99.90
60868;DHT22;46702;48.370;10.794;2023-04-25T14:38:22;8.30;99.90
60868;DHT22;46702;48.370;10.794;2023-04-25T14:40:50;8.20;99.90
60868;DHT22;46702;48.370;10.794;2023-04-25T14:43:15;8.20;99.90
60868;DHT22;46702;48.370;10.794;2023-04-25T14:45:41;8.20;99.90
60868;DHT22;46702;48.370;10.794;2023-04-25T14:48:07;8.20;99.90
60868;DHT22;46702;48.370;10.794;2023-04-25T14:50:33;8.20;99.90
60868;DHT22;46702;48.370;10.794;2023-04-25T14:52:59;8.10;99.90
60868;DHT22;46702;48.370;10.794;2023-04-25T14:55:26;8.20;99.90
60868;DHT22;46702;48.370;10.794;2023-04-25T14:57:53;8.20;99.90
60868;DHT22;46702;48.370;10.794;2023-04-25T15:00:19;8.30;99.90
60868;DHT22;46702;48.370;10.794;2023-04-25T15:02:46;8.30;99.90
60868;DHT22;46702;48.370;10.794;2023-04-25T15:05:12;8.50;99.90
60868;DHT22;46702;48.370;10.794;2023-04-25T15:07:39;8.50;99.90
60868;DHT22;46702;48.370;10.794;2023-04-25T15:10:09;8.50;99.90
60868;DHT22;46702;48.370;10.794;2023-04-25T15:12:41;8.40;99.90
60868;DHT22;46702;48.370;10.794;2023-04-25T15:15:08;8.30;99.90
60868;DHT22;46702;48.370;10.794;2023-04-25T15:17:43;8.30;99.90
60868;DHT22;46702;48.370;10.794;2023-04-25T15:20:10;8.30;99.90
60868;DHT22;46702;48.370;10.794;2023-04-25T15:22:40;8.40;99.90
60868;DHT22;46702;48.370;10.794;2023-04-25T15:25:06;8.40;99.90
60868;DHT22;46702;48.370;10.794;2023-04-25T15:27:37;8.50;99.90
60868;DHT22;46702;48.370;10.794;2023-04-25T15:30:09;8.60;99.90